Lynwood, California
Current Conditions -  °F | °C
As of 6:47 PM on Saturday 25 Oct 2014 (Local Time) from KCQT Reporting Station
Clear Clear  
Wind Chill: 70°   Ceiling: Unl
Heat Index: 70°   Visibility: 10mi
Dew Point: 58°   Wind: 0mph
Humidity: 65%   Direction: NA
Pressure: 29.98"   Gusts: NA
Location:  33.93°N, 118.19°W
Report Text: KCQT 260147Z AUTO 00000KT 10SM CLR 21/14 A2998 RMK AO2 SLP150 T02110144
Loading
Personal Weather Stations






























Interactive Weather Map
Tropical Storm Tracking
New forecast layout! Learn more

10-Day Weather Forecast

Advertisements
Track Severe Weather on mobile